createdAt,value
2023-02-25T00:01:38.963Z,7.10
2023-02-25T00:04:05.820Z,7.14
2023-02-25T00:06:32.851Z,7.33
2023-02-25T00:08:59.750Z,7.25
2023-02-25T00:11:27.043Z,7.23
2023-02-25T00:13:54.193Z,7.19
2023-02-25T00:16:24.961Z,7.08
2023-02-25T00:18:55.677Z,7.02
2023-02-25T00:21:23.956Z,7.00
2023-02-25T00:23:51.321Z,7.00
2023-02-25T00:26:18.565Z,7.22
2023-02-25T00:28:46.455Z,7.23
2023-02-25T00:31:17.132Z,7.20
2023-02-25T00:33:45.402Z,7.24
2023-02-25T00:36:15.466Z,7.07
2023-02-25T00:38:42.236Z,7.04
2023-02-25T00:41:11.592Z,7.04
2023-02-25T00:43:40.825Z,6.98
2023-02-25T00:46:11.841Z,6.97
2023-02-25T00:48:39.400Z,6.91
2023-02-25T00:51:11.361Z,6.89
2023-02-25T00:53:39.197Z,6.85
2023-02-25T00:56:08.839Z,6.86
2023-02-25T00:58:36.789Z,6.84
2023-02-25T01:01:05.107Z,6.81
2023-02-25T01:03:32.527Z,6.84
2023-02-25T01:05:59.367Z,6.94
2023-02-25T01:08:27.744Z,6.87
2023-02-25T01:10:54.501Z,6.77
2023-02-25T01:13:21.379Z,6.76
2023-02-25T01:15:48.161Z,6.77
2023-02-25T01:18:15.958Z,6.80
2023-02-25T01:20:42.815Z,6.87
2023-02-25T01:23:09.583Z,6.83
2023-02-25T01:25:40.870Z,6.79
2023-02-25T01:28:08.164Z,6.87
2023-02-25T01:30:37.347Z,6.77
2023-02-25T01:33:04.750Z,6.89
2023-02-25T01:35:31.548Z,6.86
2023-02-25T01:37:58.413Z,6.84
2023-02-25T01:40:25.763Z,6.89
2023-02-25T01:42:53.923Z,7.03
2023-02-25T01:45:30.396Z,6.84
2023-02-25T01:48:14.864Z,6.81
2023-02-25T01:50:51.000Z,6.84
2023-02-25T01:53:42.532Z,6.79
2023-02-25T01:56:12.691Z,6.67
2023-02-25T01:58:42.476Z,6.65
2023-02-25T02:01:17.772Z,6.72
2023-02-25T02:03:48.409Z,6.70
2023-02-25T02:06:19.680Z,6.70
2023-02-25T02:08:49.310Z,6.77
2023-02-25T02:11:17.064Z,6.79
2023-02-25T02:13:49.855Z,6.73
2023-02-25T02:16:39.151Z,6.67
2023-02-25T02:19:33.252Z,6.69
2023-02-25T02:22:11.553Z,6.50
2023-02-25T02:25:30.742Z,6.33
2023-02-25T02:28:26.611Z,6.28
2023-02-25T02:31:31.438Z,6.20
2023-02-25T02:34:15.974Z,6.11
2023-02-25T02:36:58.640Z,6.18
2023-02-25T02:39:41.865Z,6.17
2023-02-25T02:42:17.979Z,6.17
2023-02-25T02:44:56.103Z,6.15
2023-02-25T02:47:31.932Z,6.12
2023-02-25T02:50:05.982Z,6.20
2023-02-25T02:52:40.741Z,6.16
2023-02-25T02:55:26.596Z,6.02
2023-02-25T02:58:03.071Z,5.94
2023-02-25T03:00:39.766Z,5.99
2023-02-25T03:03:14.827Z,6.06
2023-02-25T03:05:49.178Z,6.04
2023-02-25T03:08:25.429Z,6.09
2023-02-25T03:10:52.480Z,6.01
2023-02-25T03:13:21.947Z,5.95
2023-02-25T03:15:51.636Z,5.94
2023-02-25T03:18:32.493Z,5.98
2023-02-25T03:21:06.167Z,6.01
2023-02-25T03:23:39.321Z,5.98
2023-02-25T03:26:17.719Z,6.02
2023-02-25T03:28:46.332Z,5.87
2023-02-25T03:31:22.430Z,5.91
2023-02-25T03:33:57.657Z,5.79
2023-02-25T03:36:31.066Z,5.78
2023-02-25T03:39:13.853Z,5.80
2023-02-25T03:41:46.547Z,5.74
2023-02-25T03:44:20.630Z,5.74
2023-02-25T03:46:48.521Z,5.70
2023-02-25T03:49:27.016Z,5.69
2023-02-25T03:51:58.557Z,5.69
2023-02-25T03:54:25.660Z,5.62
2023-02-25T03:56:52.594Z,5.63
2023-02-25T03:59:20.430Z,5.70
2023-02-25T04:01:51.936Z,5.74
2023-02-25T04:04:20.480Z,5.72
2023-02-25T04:06:47.905Z,5.71
2023-02-25T04:09:15.019Z,5.77
2023-02-25T04:11:42.373Z,5.75
2023-02-25T04:14:09.178Z,5.76
2023-02-25T04:16:36.254Z,5.75
2023-02-25T04:19:03.252Z,5.72
2023-02-25T04:21:34.915Z,5.69
2023-02-25T04:24:02.960Z,5.70
2023-02-25T04:26:29.865Z,5.75
2023-02-25T04:28:57.482Z,5.76
2023-02-25T04:31:24.831Z,5.78
2023-02-25T04:33:51.797Z,5.81
2023-02-25T04:36:25.165Z,5.82
2023-02-25T04:38:54.610Z,5.82
2023-02-25T04:41:21.590Z,5.85
2023-02-25T04:43:48.502Z,5.81
2023-02-25T04:46:15.324Z,5.82
2023-02-25T04:48:42.108Z,5.84
2023-02-25T04:51:09.318Z,5.85
2023-02-25T04:53:36.841Z,5.78
2023-02-25T04:56:08.705Z,5.81
2023-02-25T04:58:37.553Z,5.83
2023-02-25T05:01:07.509Z,5.82
2023-02-25T05:03:35.578Z,5.85
2023-02-25T05:06:03.848Z,5.86
2023-02-25T05:08:30.998Z,5.88
2023-02-25T05:10:57.857Z,5.88
2023-02-25T05:13:28.702Z,5.88
2023-02-25T05:16:05.341Z,5.89
2023-02-25T05:18:32.483Z,5.90
2023-02-25T05:20:59.292Z,5.85
2023-02-25T05:23:26.656Z,5.78
2023-02-25T05:25:53.474Z,5.79
2023-02-25T05:28:20.214Z,5.85
2023-02-25T05:30:48.846Z,5.82
2023-02-25T05:33:16.168Z,5.78
2023-02-25T05:35:43.158Z,5.79
2023-02-25T05:38:10.275Z,5.83
2023-02-25T05:40:38.822Z,5.83
2023-02-25T05:43:05.885Z,5.80
2023-02-25T05:45:32.724Z,5.84
2023-02-25T05:48:01.083Z,5.86
2023-02-25T05:50:27.856Z,5.81
2023-02-25T05:52:54.658Z,5.78
2023-02-25T05:55:21.467Z,5.81
2023-02-25T05:57:48.234Z,5.82
2023-02-25T06:00:16.631Z,5.82
2023-02-25T06:02:43.559Z,5.77
2023-02-25T06:05:11.737Z,5.72
2023-02-25T06:07:39.039Z,5.72
2023-02-25T06:10:07.197Z,5.77
2023-02-25T06:12:34.810Z,5.72
2023-02-25T06:15:01.654Z,5.72
2023-02-25T06:17:28.505Z,5.77
2023-02-25T06:19:55.510Z,5.84
2023-02-25T06:22:23.854Z,5.76
2023-02-25T06:24:50.576Z,5.79
2023-02-25T06:27:17.404Z,5.76
2023-02-25T06:29:47.980Z,5.77
2023-02-25T06:32:15.617Z,5.81
2023-02-25T06:34:42.784Z,5.83
2023-02-25T06:37:09.634Z,5.85
2023-02-25T06:39:37.855Z,5.80
2023-02-25T06:42:05.200Z,5.79
2023-02-25T06:44:31.979Z,5.78
2023-02-25T06:46:58.754Z,5.78
2023-02-25T06:49:25.560Z,5.70
2023-02-25T06:51:52.515Z,5.75
2023-02-25T06:54:19.655Z,5.76
2023-02-25T06:56:47.762Z,5.72
2023-02-25T06:59:14.544Z,5.69
2023-02-25T07:01:41.612Z,5.70
2023-02-25T07:04:15.165Z,5.76
2023-02-25T07:06:42.045Z,5.78
2023-02-25T07:09:09.139Z,5.81
2023-02-25T07:11:35.985Z,5.79
2023-02-25T07:14:06.384Z,5.79
2023-02-25T07:16:33.463Z,5.88
2023-02-25T07:19:01.410Z,5.91
2023-02-25T07:21:30.168Z,5.94
2023-02-25T07:23:57.827Z,5.97
2023-02-25T07:26:26.115Z,5.95
2023-02-25T07:28:53.088Z,5.93
2023-02-25T07:31:23.083Z,5.90
2023-02-25T07:33:51.601Z,5.88
2023-02-25T07:36:18.580Z,5.92
2023-02-25T07:38:46.452Z,5.92
2023-02-25T07:41:16.587Z,5.92
2023-02-25T07:43:44.233Z,5.96
2023-02-25T07:46:12.473Z,5.95
2023-02-25T07:48:41.098Z,5.94
2023-02-25T07:51:11.633Z,5.98
2023-02-25T07:53:39.400Z,6.01
2023-02-25T07:56:08.196Z,6.08
2023-02-25T07:58:36.251Z,6.17
2023-02-25T08:01:08.702Z,6.15
2023-02-25T08:03:35.750Z,6.20
2023-02-25T08:06:05.018Z,6.24
2023-02-25T08:08:57.440Z,6.27
2023-02-25T08:11:26.615Z,6.34
2023-02-25T08:13:54.851Z,6.34
2023-02-25T08:16:22.566Z,6.43
2023-02-25T08:18:49.574Z,6.34
2023-02-25T08:21:22.045Z,6.39
2023-02-25T08:23:49.270Z,6.42
2023-02-25T08:26:17.055Z,6.49
2023-02-25T08:28:45.383Z,6.54
2023-02-25T08:31:13.090Z,6.54
2023-02-25T08:33:44.544Z,6.51
2023-02-25T08:36:14.608Z,6.56
2023-02-25T08:38:43.408Z,6.49
2023-02-25T08:41:10.575Z,6.38
2023-02-25T08:43:37.988Z,6.43
2023-02-25T08:46:05.697Z,6.42
2023-02-25T08:48:33.345Z,6.42
2023-02-25T08:51:04.566Z,6.43
2023-02-25T08:53:31.460Z,6.49
2023-02-25T08:56:03.610Z,6.58
2023-02-25T08:58:31.940Z,6.55
2023-02-25T09:00:59.551Z,6.58
2023-02-25T09:03:26.443Z,6.66
2023-02-25T09:05:55.021Z,6.68
2023-02-25T09:08:22.574Z,6.71
2023-02-25T09:10:50.892Z,6.72
2023-02-25T09:13:19.391Z,6.78
2023-02-25T09:15:46.506Z,6.83
2023-02-25T09:18:13.367Z,6.91
2023-02-25T09:20:40.148Z,6.88
2023-02-25T09:23:07.001Z,6.91
2023-02-25T09:25:33.992Z,6.88
2023-02-25T09:28:00.999Z,6.97
2023-02-25T09:30:30.006Z,6.96
2023-02-25T09:32:57.810Z,6.99
2023-02-25T09:35:24.748Z,7.00
2023-02-25T09:37:51.874Z,7.13
2023-02-25T09:40:20.483Z,7.20
2023-02-25T09:43:03.373Z,7.24
2023-02-25T09:45:34.385Z,7.20
2023-02-25T09:48:13.197Z,7.20
2023-02-25T09:50:47.562Z,7.27
2023-02-25T09:53:21.667Z,7.23
2023-02-25T09:55:51.426Z,7.25
2023-02-25T09:58:30.466Z,7.29
2023-02-25T10:01:06.720Z,7.26
2023-02-25T10:03:58.075Z,7.34
2023-02-25T10:06:35.411Z,7.23
2023-02-25T10:09:15.201Z,7.49
2023-02-25T10:11:52.476Z,7.59
2023-02-25T10:14:57.482Z,7.54
2023-02-25T10:17:39.673Z,7.52
2023-02-25T10:20:40.571Z,7.53
2023-02-25T10:23:28.207Z,7.25
2023-02-25T10:26:02.630Z,7.53
2023-02-25T10:28:31.325Z,7.59
2023-02-25T10:31:05.329Z,7.48
2023-02-25T10:33:39.918Z,7.40
2023-02-25T10:36:14.265Z,7.26
2023-02-25T10:38:46.181Z,7.29
2023-02-25T10:41:14.096Z,7.34
2023-02-25T10:43:41.992Z,7.41
2023-02-25T10:46:18.667Z,7.47
2023-02-25T10:48:57.292Z,7.59
2023-02-25T10:51:25.628Z,7.70
2023-02-25T10:54:14.341Z,7.82
2023-02-25T10:56:45.679Z,7.74
2023-02-25T10:59:30.155Z,7.73
2023-02-25T11:02:00.589Z,7.57
2023-02-25T11:04:38.770Z,7.43
2023-02-25T11:07:35.187Z,7.28
2023-02-25T11:10:13.931Z,7.38
2023-02-25T11:12:43.228Z,7.32
2023-02-25T11:15:44.182Z,7.33
2023-02-25T11:18:22.716Z,7.46
2023-02-25T11:20:55.868Z,7.39
2023-02-25T11:23:35.781Z,7.37
2023-02-25T11:26:04.521Z,7.14
2023-02-25T11:28:38.159Z,7.09
2023-02-25T11:31:15.883Z,7.14
2023-02-25T11:33:50.176Z,6.97
2023-02-25T11:36:24.352Z,6.91
2023-02-25T11:39:13.992Z,6.83
2023-02-25T11:41:41.096Z,6.77
2023-02-25T11:44:21.798Z,6.76
2023-02-25T11:47:01.187Z,6.72
2023-02-25T11:50:06.401Z,6.75
2023-02-25T11:52:44.537Z,6.79
2023-02-25T11:55:36.180Z,6.81
2023-02-25T11:58:16.584Z,6.56
2023-02-25T12:00:56.051Z,6.54
2023-02-25T12:03:55.768Z,6.64
2023-02-25T12:06:45.210Z,6.80
2023-02-25T12:09:58.083Z,6.96
2023-02-25T12:13:32.891Z,7.06
2023-02-25T12:17:12.160Z,7.37
2023-02-25T12:20:35.987Z,7.60
2023-02-25T12:24:07.588Z,7.89
2023-02-25T12:27:07.860Z,8.17
2023-02-25T12:30:06.323Z,8.20
2023-02-25T12:32:57.747Z,8.49
2023-02-25T12:35:55.253Z,8.74
2023-02-25T12:39:12.980Z,8.70
2023-02-25T12:41:47.515Z,8.78
2023-02-25T12:44:53.091Z,8.93
2023-02-25T12:47:56.957Z,8.96
2023-02-25T12:50:44.530Z,9.08
2023-02-25T12:53:29.702Z,8.98
2023-02-25T12:56:18.791Z,8.66
2023-02-25T12:59:13.832Z,8.36
2023-02-25T13:02:34.195Z,8.44
2023-02-25T13:05:25.768Z,8.63
2023-02-25T13:08:27.709Z,8.63
2023-02-25T13:11:05.597Z,8.82
2023-02-25T13:14:04.724Z,9.04
2023-02-25T13:16:53.906Z,8.99
2023-02-25T13:20:08.932Z,9.22
2023-02-25T13:22:57.796Z,9.29
2023-02-25T13:25:49.789Z,9.08
2023-02-25T13:28:37.487Z,8.97
2023-02-25T13:31:18.881Z,8.96
2023-02-25T13:34:02.641Z,8.94
2023-02-25T13:37:13.721Z,8.91
2023-02-25T13:40:04.452Z,8.83
2023-02-25T13:42:55.355Z,8.88
2023-02-25T13:45:50.008Z,8.89
2023-02-25T13:48:49.096Z,8.76
2023-02-25T13:51:46.059Z,8.71
2023-02-25T13:54:55.816Z,8.83
2023-02-25T13:57:52.953Z,9.12
2023-02-25T14:00:38.537Z,9.05
2023-02-25T14:03:53.360Z,8.84
2023-02-25T14:06:45.376Z,8.64
2023-02-25T14:09:37.753Z,8.47
2023-02-25T14:12:23.762Z,8.28
2023-02-25T14:19:26.054Z,8.21
2023-02-25T14:22:23.867Z,8.34
2023-02-25T14:25:03.378Z,8.33
2023-02-25T14:27:45.420Z,8.38
2023-02-25T14:30:26.187Z,8.29
2023-02-25T14:33:20.033Z,8.34
2023-02-25T14:36:13.112Z,8.39
2023-02-25T14:39:05.968Z,8.52
2023-02-25T14:41:53.733Z,8.58
2023-02-25T14:44:34.014Z,8.64
2023-02-25T14:47:10.157Z,8.50
2023-02-25T14:49:49.500Z,8.48
2023-02-25T14:52:57.242Z,8.43
2023-02-25T14:55:58.427Z,8.45
2023-02-25T14:58:53.400Z,8.33
2023-02-25T15:01:59.108Z,8.21
2023-02-25T15:05:12.149Z,7.90
2023-02-25T15:08:21.193Z,7.25
2023-02-25T15:11:13.678Z,6.90
2023-02-25T15:14:08.010Z,6.55
2023-02-25T15:17:25.441Z,6.13
2023-02-25T15:20:16.167Z,5.98
2023-02-25T15:23:04.658Z,5.81
2023-02-25T15:26:20.196Z,5.91
2023-02-25T15:28:48.556Z,5.83
2023-02-25T15:31:35.926Z,5.82
2023-02-25T15:34:33.557Z,5.87
2023-02-25T15:37:26.340Z,5.94
2023-02-25T15:39:57.523Z,5.94
2023-02-25T15:42:48.555Z,5.98
2023-02-25T15:45:40.274Z,5.94
2023-02-25T15:48:34.701Z,6.08
2023-02-25T15:51:08.817Z,6.19
2023-02-25T15:53:44.165Z,6.31
2023-02-25T15:56:52.486Z,6.35
2023-02-25T15:59:44.341Z,6.38
2023-02-25T16:02:41.457Z,6.40
2023-02-25T16:05:39.782Z,6.42
2023-02-25T16:08:30.237Z,6.44
2023-02-25T16:15:35.364Z,6.34
2023-02-25T16:18:38.253Z,6.26
2023-02-25T16:21:15.458Z,6.28
2023-02-25T16:23:53.937Z,6.32
2023-02-25T16:27:27.056Z,6.31
2023-02-25T16:30:27.331Z,6.41
2023-02-25T16:33:46.611Z,6.44
2023-02-25T16:37:11.747Z,6.44
2023-02-25T16:39:39.689Z,6.40
2023-02-25T16:42:13.965Z,6.35
2023-02-25T16:44:55.018Z,6.31
2023-02-25T16:51:29.548Z,4.27
2023-02-25T16:54:03.564Z,3.81
2023-02-25T16:56:33.083Z,3.67
2023-02-25T16:59:06.693Z,3.57
2023-02-25T17:01:37.107Z,3.15
2023-02-25T17:04:16.404Z,3.11
2023-02-25T17:06:43.367Z,3.26
2023-02-25T17:09:23.684Z,3.39
2023-02-25T17:11:56.300Z,3.53
2023-02-25T17:14:25.714Z,3.47
2023-02-25T17:16:53.441Z,3.57
2023-02-25T17:19:24.326Z,3.63
2023-02-25T17:21:56.211Z,3.69
2023-02-25T17:24:28.820Z,3.76
2023-02-25T17:26:56.018Z,3.86
2023-02-25T17:29:34.742Z,3.89
2023-02-25T17:32:19.097Z,4.00
2023-02-25T17:34:51.011Z,4.08
2023-02-25T17:37:20.175Z,4.07
2023-02-25T17:39:48.629Z,4.04
2023-02-25T17:42:32.466Z,4.05
2023-02-25T17:45:02.020Z,4.11
2023-02-25T17:47:32.645Z,4.17
2023-02-25T17:50:21.511Z,4.23
2023-02-25T17:52:49.301Z,4.28
2023-02-25T17:55:25.838Z,4.33
2023-02-25T17:57:58.352Z,4.34
2023-02-25T18:00:30.687Z,4.35
2023-02-25T18:03:16.449Z,4.38
2023-02-25T18:05:52.731Z,4.41
2023-02-25T18:08:22.760Z,4.44
2023-02-25T18:11:02.414Z,4.45
2023-02-25T18:13:35.995Z,4.48
2023-02-25T18:16:39.723Z,4.34
2023-02-25T18:19:25.707Z,4.37
2023-02-25T18:21:54.779Z,4.41
2023-02-25T18:24:25.672Z,4.45
2023-02-25T18:27:24.115Z,4.39
2023-02-25T18:29:50.941Z,4.39
2023-02-25T18:32:17.850Z,4.43
2023-02-25T18:34:45.638Z,4.46
2023-02-25T18:37:18.035Z,4.45
2023-02-25T18:39:47.355Z,4.48
2023-02-25T18:42:16.908Z,4.48
2023-02-25T18:44:46.038Z,4.39
2023-02-25T18:47:12.968Z,4.34
2023-02-25T18:49:40.421Z,4.23
2023-02-25T18:52:20.252Z,4.18
2023-02-25T18:54:47.866Z,4.15
2023-02-25T18:57:20.646Z,4.15
2023-02-25T18:59:47.572Z,4.15
2023-02-25T19:02:27.341Z,4.09
2023-02-25T19:04:55.185Z,4.03
2023-02-25T19:07:26.604Z,4.01
2023-02-25T19:09:54.681Z,3.90
2023-02-25T19:12:23.913Z,3.85
2023-02-25T19:14:58.838Z,3.83
2023-02-25T19:17:27.896Z,3.83
2023-02-25T19:19:56.302Z,3.80
2023-02-25T19:22:25.638Z,3.64
2023-02-25T19:24:53.180Z,3.60
2023-02-25T19:27:24.331Z,3.52
2023-02-25T19:29:54.535Z,3.37
2023-02-25T19:32:22.128Z,3.46
2023-02-25T19:34:49.654Z,3.55
2023-02-25T19:37:19.128Z,3.57
2023-02-25T19:39:47.880Z,3.62
2023-02-25T19:42:15.319Z,3.62
2023-02-25T19:44:42.268Z,3.64
2023-02-25T19:47:09.476Z,3.64
2023-02-25T19:49:36.490Z,3.62
2023-02-25T19:52:04.274Z,3.70
2023-02-25T19:54:33.490Z,3.71
2023-02-25T19:57:01.845Z,3.80
2023-02-25T19:59:30.774Z,3.88
2023-02-25T20:01:57.718Z,3.84
2023-02-25T20:04:25.798Z,3.81
2023-02-25T20:06:57.143Z,3.80
2023-02-25T20:09:24.474Z,3.82
2023-02-25T20:11:51.589Z,3.77
2023-02-25T20:14:25.654Z,3.71
2023-02-25T20:16:53.307Z,3.66
2023-02-25T20:19:20.729Z,3.75
2023-02-25T20:26:08.766Z,3.77
2023-02-25T20:28:36.845Z,3.73
2023-02-25T20:31:08.059Z,3.77
2023-02-25T20:33:37.436Z,3.78
2023-02-25T20:36:20.226Z,3.82
2023-02-25T20:39:24.678Z,3.75
2023-02-25T20:41:52.045Z,3.67
2023-02-25T20:44:19.185Z,3.66
2023-02-25T20:46:49.208Z,3.56
2023-02-25T20:49:20.074Z,3.48
2023-02-25T20:51:48.909Z,3.36
2023-02-25T20:54:18.399Z,3.25
2023-02-25T20:56:47.635Z,3.28
2023-02-25T20:59:16.157Z,3.29
2023-02-25T21:01:44.356Z,3.30
2023-02-25T21:04:14.157Z,3.27
2023-02-25T21:06:41.050Z,3.27
2023-02-25T21:09:09.881Z,3.21
2023-02-25T21:11:37.112Z,3.24
2023-02-25T21:14:04.293Z,3.25
2023-02-25T21:16:31.198Z,3.24
2023-02-25T21:18:58.631Z,3.23
2023-02-25T21:21:27.170Z,3.24
2023-02-25T21:23:53.973Z,3.25
2023-02-25T21:26:22.116Z,3.17
2023-02-25T21:28:49.072Z,3.17
2023-02-25T21:31:16.789Z,3.15
2023-02-25T21:33:44.000Z,3.22
2023-02-25T21:36:16.511Z,3.30
2023-02-25T21:49:57.993Z,3.53
2023-02-25T21:52:24.976Z,3.42
2023-02-25T21:54:51.883Z,3.80
2023-02-25T22:02:01.473Z,3.84
2023-02-25T22:05:47.133Z,3.77
2023-02-25T22:08:33.750Z,3.54
2023-02-25T22:11:51.861Z,3.62
2023-02-25T22:14:19.451Z,4.09
2023-02-25T22:16:48.367Z,4.01
2023-02-25T22:23:47.661Z,3.56
2023-02-25T22:26:23.136Z,3.44
2023-02-25T22:28:54.572Z,3.23
2023-02-25T22:31:22.557Z,3.16
2023-02-25T22:33:50.274Z,3.14
2023-02-25T22:36:19.369Z,3.09
2023-02-25T22:38:51.293Z,3.08
2023-02-25T22:41:27.699Z,3.04
2023-02-25T22:43:57.252Z,2.99
2023-02-25T22:46:27.886Z,2.96
2023-02-25T22:48:58.512Z,2.87
2023-02-25T22:51:29.162Z,2.91
2023-02-25T22:53:58.018Z,2.93
2023-02-25T22:56:26.270Z,2.84
2023-02-25T22:58:54.078Z,2.86
2023-02-25T23:01:44.375Z,2.89
2023-02-25T23:04:11.354Z,2.88
2023-02-25T23:06:44.057Z,2.90
2023-02-25T23:09:15.003Z,2.89
2023-02-25T23:11:44.277Z,2.84
2023-02-25T23:14:14.644Z,2.86
2023-02-25T23:16:44.920Z,2.86
2023-02-25T23:19:16.951Z,2.82
2023-02-25T23:21:44.246Z,2.80
2023-02-25T23:24:13.827Z,2.77
2023-02-25T23:26:43.844Z,2.75
2023-02-25T23:29:24.830Z,2.72
2023-02-25T23:31:54.584Z,2.71
2023-02-25T23:34:26.880Z,2.68
2023-02-25T23:37:30.493Z,2.64
2023-02-25T23:40:08.132Z,2.56
2023-02-25T23:42:42.602Z,2.50
2023-02-25T23:50:26.843Z,2.46
2023-02-25T23:52:54.500Z,2.36
2023-02-25T23:55:27.595Z,2.28
2023-02-25T23:58:54.410Z,2.22
